sensor_id;sensor_type;location;lat;lon;timestamp;P1;durP1;ratioP1;P2;durP2;ratioP2
69253;SDS011;56364;41.816;12.448;2023-03-08T00:02:01;7.22;;;2.40;;
69253;SDS011;56364;41.816;12.448;2023-03-08T00:04:27;7.38;;;2.20;;
69253;SDS011;56364;41.816;12.448;2023-03-08T00:06:53;6.72;;;2.00;;
69253;SDS011;56364;41.816;12.448;2023-03-08T00:09:22;4.75;;;1.90;;
69253;SDS011;56364;41.816;12.448;2023-03-08T00:14:24;17.60;;;2.58;;
69253;SDS011;56364;41.816;12.448;2023-03-08T00:16:53;8.68;;;2.40;;
69253;SDS011;56364;41.816;12.448;2023-03-08T00:19:22;7.32;;;2.42;;
69253;SDS011;56364;41.816;12.448;2023-03-08T00:21:50;6.00;;;1.80;;
69253;SDS011;56364;41.816;12.448;2023-03-08T00:24:16;8.95;;;2.45;;
69253;SDS011;56364;41.816;12.448;2023-03-08T00:26:44;6.88;;;1.98;;
69253;SDS011;56364;41.816;12.448;2023-03-08T00:31:37;12.00;;;2.13;;
69253;SDS011;56364;41.816;12.448;2023-03-08T00:34:06;7.03;;;1.85;;
69253;SDS011;56364;41.816;12.448;2023-03-08T00:36:33;8.73;;;2.17;;
69253;SDS011;56364;41.816;12.448;2023-03-08T00:38:59;12.27;;;2.20;;
69253;SDS011;56364;41.816;12.448;2023-03-08T00:41:26;9.25;;;2.05;;
69253;SDS011;56364;41.816;12.448;2023-03-08T00:43:52;11.52;;;2.63;;
69253;SDS011;56364;41.816;12.448;2023-03-08T00:46:20;9.73;;;2.53;;
69253;SDS011;56364;41.816;12.448;2023-03-08T00:48:46;9.55;;;2.05;;
69253;SDS011;56364;41.816;12.448;2023-03-08T00:51:13;10.35;;;2.35;;
69253;SDS011;56364;41.816;12.448;2023-03-08T00:53:39;6.63;;;2.33;;
69253;SDS011;56364;41.816;12.448;2023-03-08T00:56:05;13.73;;;2.70;;
69253;SDS011;56364;41.816;12.448;2023-03-08T00:58:32;15.05;;;2.58;;
69253;SDS011;56364;41.816;12.448;2023-03-08T01:00:58;12.85;;;2.13;;
69253;SDS011;56364;41.816;12.448;2023-03-08T01:05:54;11.60;;;3.03;;
69253;SDS011;56364;41.816;12.448;2023-03-08T01:08:22;7.88;;;1.80;;
69253;SDS011;56364;41.816;12.448;2023-03-08T01:10:52;9.40;;;2.08;;
69253;SDS011;56364;41.816;12.448;2023-03-08T01:13:21;7.95;;;2.08;;
69253;SDS011;56364;41.816;12.448;2023-03-08T01:15:47;9.38;;;2.00;;
69253;SDS011;56364;41.816;12.448;2023-03-08T01:18:14;4.03;;;2.42;;
69253;SDS011;56364;41.816;12.448;2023-03-08T01:20:41;12.40;;;2.10;;
69253;SDS011;56364;41.816;12.448;2023-03-08T01:23:07;5.95;;;1.95;;
69253;SDS011;56364;41.816;12.448;2023-03-08T01:25:37;14.10;;;2.50;;
69253;SDS011;56364;41.816;12.448;2023-03-08T01:28:03;7.35;;;1.95;;
69253;SDS011;56364;41.816;12.448;2023-03-08T01:30:31;6.57;;;2.15;;
69253;SDS011;56364;41.816;12.448;2023-03-08T01:32:57;9.32;;;2.42;;
69253;SDS011;56364;41.816;12.448;2023-03-08T01:35:24;8.77;;;2.15;;
69253;SDS011;56364;41.816;12.448;2023-03-08T01:37:50;8.40;;;2.10;;
69253;SDS011;56364;41.816;12.448;2023-03-08T01:40:18;9.98;;;2.28;;
69253;SDS011;56364;41.816;12.448;2023-03-08T01:42:44;6.78;;;2.17;;
69253;SDS011;56364;41.816;12.448;2023-03-08T01:47:57;10.02;;;2.05;;
69253;SDS011;56364;41.816;12.448;2023-03-08T01:50:23;5.00;;;1.77;;
69253;SDS011;56364;41.816;12.448;2023-03-08T01:55:15;7.35;;;2.03;;
69253;SDS011;56364;41.816;12.448;2023-03-08T01:57:47;9.73;;;2.05;;
69253;SDS011;56364;41.816;12.448;2023-03-08T02:00:15;9.32;;;2.70;;
69253;SDS011;56364;41.816;12.448;2023-03-08T02:02:43;10.82;;;2.00;;
69253;SDS011;56364;41.816;12.448;2023-03-08T02:05:13;15.20;;;2.40;;
69253;SDS011;56364;41.816;12.448;2023-03-08T02:07:40;10.18;;;2.30;;
69253;SDS011;56364;41.816;12.448;2023-03-08T02:10:06;8.80;;;2.20;;
69253;SDS011;56364;41.816;12.448;2023-03-08T02:12:32;8.82;;;2.20;;
69253;SDS011;56364;41.816;12.448;2023-03-08T02:14:59;7.40;;;1.98;;
69253;SDS011;56364;41.816;12.448;2023-03-08T02:17:27;11.27;;;2.53;;
69253;SDS011;56364;41.816;12.448;2023-03-08T02:19:59;7.72;;;2.30;;
69253;SDS011;56364;41.816;12.448;2023-03-08T02:22:28;8.32;;;1.98;;
69253;SDS011;56364;41.816;12.448;2023-03-08T02:24:54;8.52;;;2.40;;
69253;SDS011;56364;41.816;12.448;2023-03-08T02:27:20;9.93;;;3.25;;
69253;SDS011;56364;41.816;12.448;2023-03-08T02:29:57;8.48;;;1.80;;
69253;SDS011;56364;41.816;12.448;2023-03-08T02:32:28;10.70;;;2.25;;
69253;SDS011;56364;41.816;12.448;2023-03-08T02:35:00;7.45;;;2.08;;
69253;SDS011;56364;41.816;12.448;2023-03-08T02:37:27;6.63;;;2.45;;
69253;SDS011;56364;41.816;12.448;2023-03-08T02:39:53;4.15;;;1.75;;
69253;SDS011;56364;41.816;12.448;2023-03-08T02:42:20;7.53;;;2.33;;
69253;SDS011;56364;41.816;12.448;2023-03-08T02:44:46;7.15;;;1.88;;
69253;SDS011;56364;41.816;12.448;2023-03-08T02:47:12;8.60;;;1.80;;
69253;SDS011;56364;41.816;12.448;2023-03-08T02:49:38;6.72;;;1.80;;
69253;SDS011;56364;41.816;12.448;2023-03-08T02:52:04;10.20;;;2.00;;
69253;SDS011;56364;41.816;12.448;2023-03-08T02:56:56;10.15;;;1.92;;
69253;SDS011;56364;41.816;12.448;2023-03-08T02:59:23;9.07;;;1.92;;
69253;SDS011;56364;41.816;12.448;2023-03-08T03:01:50;9.80;;;2.35;;
69253;SDS011;56364;41.816;12.448;2023-03-08T03:06:43;7.25;;;2.17;;
69253;SDS011;56364;41.816;12.448;2023-03-08T03:09:09;5.75;;;1.92;;
69253;SDS011;56364;41.816;12.448;2023-03-08T03:11:38;9.15;;;2.28;;
69253;SDS011;56364;41.816;12.448;2023-03-08T03:14:05;4.55;;;1.83;;
69253;SDS011;56364;41.816;12.448;2023-03-08T03:16:31;5.40;;;1.98;;
69253;SDS011;56364;41.816;12.448;2023-03-08T03:18:57;8.70;;;2.30;;
69253;SDS011;56364;41.816;12.448;2023-03-08T03:21:24;7.00;;;1.65;;
69253;SDS011;56364;41.816;12.448;2023-03-08T03:23:50;5.30;;;1.75;;
69253;SDS011;56364;41.816;12.448;2023-03-08T03:26:34;11.13;;;2.10;;
69253;SDS011;56364;41.816;12.448;2023-03-08T03:29:07;8.50;;;2.15;;
69253;SDS011;56364;41.816;12.448;2023-03-08T03:31:33;8.07;;;1.65;;
69253;SDS011;56364;41.816;12.448;2023-03-08T03:33:59;7.28;;;2.35;;
69253;SDS011;56364;41.816;12.448;2023-03-08T03:36:25;4.50;;;1.80;;
69253;SDS011;56364;41.816;12.448;2023-03-08T03:38:51;7.07;;;1.60;;
69253;SDS011;56364;41.816;12.448;2023-03-08T03:41:19;6.05;;;2.10;;
69253;SDS011;56364;41.816;12.448;2023-03-08T03:43:45;11.45;;;2.22;;
69253;SDS011;56364;41.816;12.448;2023-03-08T03:48:37;14.82;;;1.92;;
69253;SDS011;56364;41.816;12.448;2023-03-08T03:51:04;5.15;;;1.70;;
69253;SDS011;56364;41.816;12.448;2023-03-08T03:53:34;6.65;;;2.17;;
69253;SDS011;56364;41.816;12.448;2023-03-08T03:56:02;9.98;;;2.40;;
69253;SDS011;56364;41.816;12.448;2023-03-08T03:58:28;7.70;;;2.10;;
69253;SDS011;56364;41.816;12.448;2023-03-08T04:00:55;6.70;;;2.05;;
69253;SDS011;56364;41.816;12.448;2023-03-08T04:05:47;5.88;;;1.75;;
69253;SDS011;56364;41.816;12.448;2023-03-08T04:08:13;6.30;;;2.10;;
69253;SDS011;56364;41.816;12.448;2023-03-08T04:10:39;4.15;;;1.52;;
69253;SDS011;56364;41.816;12.448;2023-03-08T04:13:05;10.80;;;2.05;;
69253;SDS011;56364;41.816;12.448;2023-03-08T04:15:31;7.43;;;2.30;;
69253;SDS011;56364;41.816;12.448;2023-03-08T04:17:57;9.30;;;1.75;;
69253;SDS011;56364;41.816;12.448;2023-03-08T04:20:23;7.47;;;1.52;;
69253;SDS011;56364;41.816;12.448;2023-03-08T04:22:49;10.50;;;1.98;;
69253;SDS011;56364;41.816;12.448;2023-03-08T04:25:19;9.60;;;1.95;;
69253;SDS011;56364;41.816;12.448;2023-03-08T04:27:45;7.10;;;1.65;;
69253;SDS011;56364;41.816;12.448;2023-03-08T05:19:47;5.88;;;1.48;;
69253;SDS011;56364;41.816;12.448;2023-03-08T05:22:16;9.70;;;1.70;;
69253;SDS011;56364;41.816;12.448;2023-03-08T05:32:42;13.15;;;1.42;;
69253;SDS011;56364;41.816;12.448;2023-03-08T05:35:11;14.07;;;2.20;;
69253;SDS011;56364;41.816;12.448;2023-03-08T05:37:37;4.22;;;1.50;;
69253;SDS011;56364;41.816;12.448;2023-03-08T05:40:10;9.45;;;1.92;;
69253;SDS011;56364;41.816;12.448;2023-03-08T05:42:36;4.68;;;1.60;;
69253;SDS011;56364;41.816;12.448;2023-03-08T05:45:02;8.27;;;1.92;;
69253;SDS011;56364;41.816;12.448;2023-03-08T05:47:29;11.23;;;2.38;;
69253;SDS011;56364;41.816;12.448;2023-03-08T05:49:55;6.35;;;1.60;;
69253;SDS011;56364;41.816;12.448;2023-03-08T05:52:21;8.88;;;2.15;;
69253;SDS011;56364;41.816;12.448;2023-03-08T05:54:49;6.10;;;1.77;;
69253;SDS011;56364;41.816;12.448;2023-03-08T05:57:15;7.53;;;1.73;;
69253;SDS011;56364;41.816;12.448;2023-03-08T06:02:07;3.05;;;1.25;;
69253;SDS011;56364;41.816;12.448;2023-03-08T06:04:33;4.88;;;1.38;;
69253;SDS011;56364;41.816;12.448;2023-03-08T06:06:59;9.13;;;1.80;;
69253;SDS011;56364;41.816;12.448;2023-03-08T06:09:25;4.93;;;1.42;;
69253;SDS011;56364;41.816;12.448;2023-03-08T06:11:54;4.45;;;1.48;;
69253;SDS011;56364;41.816;12.448;2023-03-08T06:14:20;5.03;;;2.00;;
69253;SDS011;56364;41.816;12.448;2023-03-08T06:16:46;6.22;;;1.45;;
69253;SDS011;56364;41.816;12.448;2023-03-08T06:19:14;4.72;;;1.30;;
69253;SDS011;56364;41.816;12.448;2023-03-08T06:24:16;8.50;;;1.90;;
69253;SDS011;56364;41.816;12.448;2023-03-08T06:26:42;7.35;;;1.50;;
69253;SDS011;56364;41.816;12.448;2023-03-08T06:29:10;7.15;;;1.92;;
69253;SDS011;56364;41.816;12.448;2023-03-08T06:31:36;5.03;;;1.77;;
69253;SDS011;56364;41.816;12.448;2023-03-08T06:34:04;7.90;;;1.95;;
69253;SDS011;56364;41.816;12.448;2023-03-08T06:36:30;4.50;;;1.70;;
69253;SDS011;56364;41.816;12.448;2023-03-08T06:38:56;11.93;;;1.77;;
69253;SDS011;56364;41.816;12.448;2023-03-08T06:41:31;6.55;;;1.88;;
69253;SDS011;56364;41.816;12.448;2023-03-08T06:43:58;6.03;;;1.40;;
69253;SDS011;56364;41.816;12.448;2023-03-08T06:46:27;3.47;;;1.33;;
69253;SDS011;56364;41.816;12.448;2023-03-08T06:48:53;8.25;;;1.70;;
69253;SDS011;56364;41.816;12.448;2023-03-08T06:51:21;6.45;;;1.60;;
69253;SDS011;56364;41.816;12.448;2023-03-08T06:53:48;6.53;;;1.35;;
69253;SDS011;56364;41.816;12.448;2023-03-08T06:56:14;7.95;;;1.60;;
69253;SDS011;56364;41.816;12.448;2023-03-08T06:58:44;16.95;;;2.47;;
69253;SDS011;56364;41.816;12.448;2023-03-08T07:01:10;7.85;;;1.92;;
69253;SDS011;56364;41.816;12.448;2023-03-08T07:03:40;9.88;;;2.70;;
69253;SDS011;56364;41.816;12.448;2023-03-08T07:06:09;10.55;;;3.15;;
69253;SDS011;56364;41.816;12.448;2023-03-08T07:13:39;3.83;;;1.60;;
69253;SDS011;56364;41.816;12.448;2023-03-08T07:16:07;9.43;;;1.95;;
69253;SDS011;56364;41.816;12.448;2023-03-08T07:18:33;8.75;;;2.03;;
69253;SDS011;56364;41.816;12.448;2023-03-08T07:21:00;5.07;;;2.00;;
69253;SDS011;56364;41.816;12.448;2023-03-08T07:23:27;6.93;;;1.70;;
69253;SDS011;56364;41.816;12.448;2023-03-08T07:28:22;7.75;;;1.65;;
69253;SDS011;56364;41.816;12.448;2023-03-08T07:30:52;7.03;;;2.10;;
69253;SDS011;56364;41.816;12.448;2023-03-08T07:33:29;11.68;;;2.40;;
69253;SDS011;56364;41.816;12.448;2023-03-08T07:36:15;10.82;;;2.22;;
69253;SDS011;56364;41.816;12.448;2023-03-08T07:38:41;7.07;;;1.48;;
69253;SDS011;56364;41.816;12.448;2023-03-08T07:41:13;11.10;;;2.15;;
69253;SDS011;56364;41.816;12.448;2023-03-08T07:43:48;6.70;;;1.65;;
69253;SDS011;56364;41.816;12.448;2023-03-08T07:46:17;7.03;;;1.95;;
69253;SDS011;56364;41.816;12.448;2023-03-08T07:48:43;4.97;;;2.13;;
69253;SDS011;56364;41.816;12.448;2023-03-08T07:51:09;10.20;;;2.10;;
69253;SDS011;56364;41.816;12.448;2023-03-08T07:53:38;4.57;;;1.90;;
69253;SDS011;56364;41.816;12.448;2023-03-08T07:56:07;12.50;;;2.75;;
69253;SDS011;56364;41.816;12.448;2023-03-08T07:58:34;7.28;;;1.95;;
69253;SDS011;56364;41.816;12.448;2023-03-08T08:03:27;11.35;;;2.33;;
69253;SDS011;56364;41.816;12.448;2023-03-08T08:05:53;5.43;;;1.83;;
69253;SDS011;56364;41.816;12.448;2023-03-08T08:10:49;4.70;;;1.88;;
69253;SDS011;56364;41.816;12.448;2023-03-08T08:13:15;6.15;;;1.88;;
69253;SDS011;56364;41.816;12.448;2023-03-08T08:15:41;4.15;;;1.77;;
69253;SDS011;56364;41.816;12.448;2023-03-08T08:20:33;3.45;;;1.63;;
69253;SDS011;56364;41.816;12.448;2023-03-08T08:22:59;8.27;;;1.98;;
69253;SDS011;56364;41.816;12.448;2023-03-08T08:27:54;7.45;;;2.08;;
69253;SDS011;56364;41.816;12.448;2023-03-08T08:30:20;15.63;;;1.95;;
69253;SDS011;56364;41.816;12.448;2023-03-08T08:32:46;11.25;;;1.83;;
69253;SDS011;56364;41.816;12.448;2023-03-08T08:37:38;8.98;;;2.17;;
69253;SDS011;56364;41.816;12.448;2023-03-08T08:42:32;7.78;;;2.03;;
69253;SDS011;56364;41.816;12.448;2023-03-08T08:47:34;15.82;;;2.40;;
69253;SDS011;56364;41.816;12.448;2023-03-08T08:52:36;5.97;;;2.13;;
69253;SDS011;56364;41.816;12.448;2023-03-08T08:55:22;13.02;;;2.25;;
69253;SDS011;56364;41.816;12.448;2023-03-08T08:57:48;10.95;;;1.90;;
69253;SDS011;56364;41.816;12.448;2023-03-08T09:00:53;9.82;;;2.42;;
69253;SDS011;56364;41.816;12.448;2023-03-08T09:03:19;9.68;;;2.30;;
69253;SDS011;56364;41.816;12.448;2023-03-08T09:05:45;8.63;;;2.30;;
69253;SDS011;56364;41.816;12.448;2023-03-08T09:08:11;8.82;;;2.25;;
69253;SDS011;56364;41.816;12.448;2023-03-08T09:10:38;3.38;;;1.38;;
69253;SDS011;56364;41.816;12.448;2023-03-08T10:15:23;16.05;;;2.00;;
69253;SDS011;56364;41.816;12.448;2023-03-08T10:18:09;7.28;;;2.05;;
69253;SDS011;56364;41.816;12.448;2023-03-08T10:20:40;7.32;;;1.27;;
69253;SDS011;56364;41.816;12.448;2023-03-08T10:25:43;9.30;;;1.48;;
69253;SDS011;56364;41.816;12.448;2023-03-08T10:28:14;4.20;;;1.30;;
69253;SDS011;56364;41.816;12.448;2023-03-08T10:30:44;5.00;;;1.35;;
69253;SDS011;56364;41.816;12.448;2023-03-08T10:33:12;9.38;;;1.85;;
69253;SDS011;56364;41.816;12.448;2023-03-08T10:35:55;5.32;;;1.67;;
69253;SDS011;56364;41.816;12.448;2023-03-08T10:38:22;10.55;;;1.45;;
69253;SDS011;56364;41.816;12.448;2023-03-08T10:40:55;4.70;;;0.95;;
69253;SDS011;56364;41.816;12.448;2023-03-08T10:43:37;5.45;;;1.38;;
69253;SDS011;56364;41.816;12.448;2023-03-08T10:46:11;6.05;;;1.10;;
69253;SDS011;56364;41.816;12.448;2023-03-08T10:48:38;8.32;;;1.40;;
69253;SDS011;56364;41.816;12.448;2023-03-08T10:51:49;9.82;;;1.73;;
69253;SDS011;56364;41.816;12.448;2023-03-08T10:54:01;4.82;;;1.30;;
69253;SDS011;56364;41.816;12.448;2023-03-08T10:56:38;12.88;;;1.67;;
69253;SDS011;56364;41.816;12.448;2023-03-08T10:59:18;11.68;;;1.85;;
69253;SDS011;56364;41.816;12.448;2023-03-08T11:01:47;3.25;;;1.10;;
69253;SDS011;56364;41.816;12.448;2023-03-08T11:04:15;7.60;;;0.90;;
69253;SDS011;56364;41.816;12.448;2023-03-08T11:06:44;3.58;;;1.15;;
69253;SDS011;56364;41.816;12.448;2023-03-08T11:20:43;6.80;;;1.17;;
69253;SDS011;56364;41.816;12.448;2023-03-08T11:23:44;5.22;;;1.20;;
69253;SDS011;56364;41.816;12.448;2023-03-08T11:26:31;4.47;;;1.00;;
69253;SDS011;56364;41.816;12.448;2023-03-08T11:42:16;7.30;;;1.10;;
69253;SDS011;56364;41.816;12.448;2023-03-08T11:50:24;2.03;;;0.93;;
69253;SDS011;56364;41.816;12.448;2023-03-08T11:58:05;3.90;;;1.08;;
69253;SDS011;56364;41.816;12.448;2023-03-08T12:00:35;2.80;;;0.95;;
69253;SDS011;56364;41.816;12.448;2023-03-08T12:03:12;3.80;;;1.08;;
69253;SDS011;56364;41.816;12.448;2023-03-08T12:05:41;11.68;;;1.23;;
69253;SDS011;56364;41.816;12.448;2023-03-08T12:08:12;6.85;;;1.40;;
69253;SDS011;56364;41.816;12.448;2023-03-08T12:15:45;2.38;;;0.88;;
69253;SDS011;56364;41.816;12.448;2023-03-08T12:18:15;5.75;;;1.17;;
69253;SDS011;56364;41.816;12.448;2023-03-08T12:26:50;4.60;;;1.20;;
69253;SDS011;56364;41.816;12.448;2023-03-08T12:29:23;4.05;;;0.90;;
69253;SDS011;56364;41.816;12.448;2023-03-08T12:31:52;5.53;;;1.33;;
69253;SDS011;56364;41.816;12.448;2023-03-08T12:34:38;3.83;;;1.20;;
69253;SDS011;56364;41.816;12.448;2023-03-08T12:37:24;3.53;;;1.20;;
69253;SDS011;56364;41.816;12.448;2023-03-08T13:11:17;3.80;;;0.73;;
69253;SDS011;56364;41.816;12.448;2023-03-08T13:13:54;4.15;;;0.70;;
69253;SDS011;56364;41.816;12.448;2023-03-08T13:16:31;4.07;;;0.98;;
69253;SDS011;56364;41.816;12.448;2023-03-08T13:29:54;5.35;;;0.93;;
69253;SDS011;56364;41.816;12.448;2023-03-08T13:32:21;4.47;;;0.90;;
69253;SDS011;56364;41.816;12.448;2023-03-08T13:34:56;4.05;;;1.30;;
69253;SDS011;56364;41.816;12.448;2023-03-08T13:37:23;3.13;;;1.05;;
69253;SDS011;56364;41.816;12.448;2023-03-08T13:40:00;3.05;;;0.90;;
69253;SDS011;56364;41.816;12.448;2023-03-08T13:42:26;1.95;;;0.57;;
69253;SDS011;56364;41.816;12.448;2023-03-08T13:45:04;10.10;;;1.27;;
69253;SDS011;56364;41.816;12.448;2023-03-08T13:47:40;5.18;;;1.30;;
69253;SDS011;56364;41.816;12.448;2023-03-08T13:50:18;15.10;;;5.70;;
69253;SDS011;56364;41.816;12.448;2023-03-08T13:52:45;6.35;;;1.05;;
69253;SDS011;56364;41.816;12.448;2023-03-08T13:55:17;5.20;;;0.70;;
69253;SDS011;56364;41.816;12.448;2023-03-08T13:57:46;2.42;;;0.70;;
69253;SDS011;56364;41.816;12.448;2023-03-08T14:00:23;3.10;;;0.63;;
69253;SDS011;56364;41.816;12.448;2023-03-08T14:02:50;4.03;;;1.05;;
69253;SDS011;56364;41.816;12.448;2023-03-08T14:05:20;3.63;;;0.50;;
69253;SDS011;56364;41.816;12.448;2023-03-08T14:07:55;2.15;;;0.40;;
69253;SDS011;56364;41.816;12.448;2023-03-08T14:10:45;5.70;;;0.88;;
69253;SDS011;56364;41.816;12.448;2023-03-08T14:13:18;2.38;;;0.50;;
69253;SDS011;56364;41.816;12.448;2023-03-08T14:15:49;4.25;;;0.80;;
69253;SDS011;56364;41.816;12.448;2023-03-08T14:18:24;2.65;;;0.93;;
69253;SDS011;56364;41.816;12.448;2023-03-08T14:21:19;3.17;;;1.02;;
69253;SDS011;56364;41.816;12.448;2023-03-08T14:23:52;6.60;;;0.90;;
69253;SDS011;56364;41.816;12.448;2023-03-08T14:29:19;1.05;;;0.38;;
69253;SDS011;56364;41.816;12.448;2023-03-08T14:34:47;4.28;;;0.85;;
69253;SDS011;56364;41.816;12.448;2023-03-08T14:53:21;6.07;;;0.77;;
69253;SDS011;56364;41.816;12.448;2023-03-08T14:56:01;3.03;;;0.88;;
69253;SDS011;56364;41.816;12.448;2023-03-08T14:58:40;5.15;;;0.70;;
69253;SDS011;56364;41.816;12.448;2023-03-08T15:01:48;4.57;;;0.80;;
69253;SDS011;56364;41.816;12.448;2023-03-08T15:07:25;2.47;;;0.80;;
69253;SDS011;56364;41.816;12.448;2023-03-08T15:12:53;3.47;;;0.90;;
69253;SDS011;56364;41.816;12.448;2023-03-08T15:15:29;5.63;;;0.95;;
69253;SDS011;56364;41.816;12.448;2023-03-08T15:17:56;2.55;;;0.95;;
69253;SDS011;56364;41.816;12.448;2023-03-08T15:20:32;3.88;;;0.70;;
69253;SDS011;56364;41.816;12.448;2023-03-08T15:23:00;3.20;;;0.63;;
69253;SDS011;56364;41.816;12.448;2023-03-08T15:25:56;3.40;;;0.80;;
69253;SDS011;56364;41.816;12.448;2023-03-08T15:28:25;14.25;;;1.10;;
69253;SDS011;56364;41.816;12.448;2023-03-08T15:31:18;3.00;;;0.93;;
69253;SDS011;56364;41.816;12.448;2023-03-08T15:34:00;2.50;;;0.73;;
69253;SDS011;56364;41.816;12.448;2023-03-08T15:37:02;5.50;;;0.93;;
69253;SDS011;56364;41.816;12.448;2023-03-08T15:39:31;5.30;;;1.13;;
69253;SDS011;56364;41.816;12.448;2023-03-08T15:42:05;1.88;;;0.65;;
69253;SDS011;56364;41.816;12.448;2023-03-08T15:44:50;4.63;;;0.95;;
69253;SDS011;56364;41.816;12.448;2023-03-08T15:50:31;4.72;;;0.93;;
69253;SDS011;56364;41.816;12.448;2023-03-08T15:53:04;4.68;;;0.90;;
69253;SDS011;56364;41.816;12.448;2023-03-08T15:55:30;4.00;;;0.82;;
69253;SDS011;56364;41.816;12.448;2023-03-08T15:58:18;4.57;;;1.00;;
69253;SDS011;56364;41.816;12.448;2023-03-08T16:00:44;5.20;;;1.17;;
69253;SDS011;56364;41.816;12.448;2023-03-08T16:05:37;3.20;;;0.95;;
69253;SDS011;56364;41.816;12.448;2023-03-08T16:08:03;4.70;;;1.20;;
69253;SDS011;56364;41.816;12.448;2023-03-08T16:10:32;4.05;;;0.88;;
69253;SDS011;56364;41.816;12.448;2023-03-08T16:13:05;5.85;;;1.00;;
69253;SDS011;56364;41.816;12.448;2023-03-08T16:15:32;5.53;;;1.27;;
69253;SDS011;56364;41.816;12.448;2023-03-08T16:17:58;7.80;;;0.90;;
69253;SDS011;56364;41.816;12.448;2023-03-08T16:20:24;3.60;;;0.80;;
69253;SDS011;56364;41.816;12.448;2023-03-08T16:22:52;5.57;;;1.05;;
69253;SDS011;56364;41.816;12.448;2023-03-08T16:25:19;7.93;;;1.20;;
69253;SDS011;56364;41.816;12.448;2023-03-08T16:27:47;3.85;;;0.70;;
69253;SDS011;56364;41.816;12.448;2023-03-08T16:30:13;4.28;;;1.10;;
69253;SDS011;56364;41.816;12.448;2023-03-08T16:32:39;5.95;;;0.95;;
69253;SDS011;56364;41.816;12.448;2023-03-08T16:37:31;8.73;;;1.30;;
69253;SDS011;56364;41.816;12.448;2023-03-08T16:40:02;3.38;;;1.05;;
69253;SDS011;56364;41.816;12.448;2023-03-08T16:42:31;8.13;;;1.35;;
69253;SDS011;56364;41.816;12.448;2023-03-08T16:44:57;4.80;;;0.88;;
69253;SDS011;56364;41.816;12.448;2023-03-08T16:49:50;5.45;;;0.75;;
69253;SDS011;56364;41.816;12.448;2023-03-08T16:54:52;3.90;;;1.20;;
69253;SDS011;56364;41.816;12.448;2023-03-08T16:59:46;2.60;;;0.77;;
69253;SDS011;56364;41.816;12.448;2023-03-08T17:02:19;4.43;;;1.38;;
69253;SDS011;56364;41.816;12.448;2023-03-08T17:04:46;6.70;;;1.38;;
69253;SDS011;56364;41.816;12.448;2023-03-08T17:07:15;6.88;;;1.30;;
69253;SDS011;56364;41.816;12.448;2023-03-08T17:09:45;4.13;;;1.10;;
69253;SDS011;56364;41.816;12.448;2023-03-08T17:12:11;7.93;;;1.13;;
69253;SDS011;56364;41.816;12.448;2023-03-08T17:17:03;9.75;;;1.35;;
69253;SDS011;56364;41.816;12.448;2023-03-08T17:21:56;3.72;;;1.05;;
69253;SDS011;56364;41.816;12.448;2023-03-08T17:24:22;3.00;;;1.23;;
69253;SDS011;56364;41.816;12.448;2023-03-08T17:26:51;6.22;;;1.30;;
69253;SDS011;56364;41.816;12.448;2023-03-08T17:29:17;5.97;;;1.05;;
69253;SDS011;56364;41.816;12.448;2023-03-08T17:34:09;6.03;;;1.80;;
69253;SDS011;56364;41.816;12.448;2023-03-08T17:36:35;14.20;;;1.60;;
69253;SDS011;56364;41.816;12.448;2023-03-08T17:39:01;13.10;;;2.10;;
69253;SDS011;56364;41.816;12.448;2023-03-08T17:41:28;7.85;;;1.88;;
69253;SDS011;56364;41.816;12.448;2023-03-08T17:43:56;3.92;;;1.30;;
69253;SDS011;56364;41.816;12.448;2023-03-08T17:46:24;5.22;;;1.50;;
69253;SDS011;56364;41.816;12.448;2023-03-08T17:48:51;7.38;;;1.60;;
69253;SDS011;56364;41.816;12.448;2023-03-08T17:53:43;9.50;;;1.75;;
69253;SDS011;56364;41.816;12.448;2023-03-08T17:56:12;3.75;;;1.25;;
69253;SDS011;56364;41.816;12.448;2023-03-08T17:58:38;10.90;;;1.85;;
69253;SDS011;56364;41.816;12.448;2023-03-08T18:01:09;9.63;;;1.88;;
69253;SDS011;56364;41.816;12.448;2023-03-08T18:03:39;12.35;;;2.00;;
69253;SDS011;56364;41.816;12.448;2023-03-08T18:09:15;11.05;;;2.13;;
69253;SDS011;56364;41.816;12.448;2023-03-08T18:12:12;9.60;;;1.52;;
69253;SDS011;56364;41.816;12.448;2023-03-08T18:15:00;4.82;;;1.52;;
69253;SDS011;56364;41.816;12.448;2023-03-08T18:17:26;3.78;;;1.40;;
69253;SDS011;56364;41.816;12.448;2023-03-08T18:19:52;4.32;;;1.35;;
69253;SDS011;56364;41.816;12.448;2023-03-08T18:22:19;4.68;;;1.50;;
69253;SDS011;56364;41.816;12.448;2023-03-08T18:24:45;4.40;;;1.48;;
69253;SDS011;56364;41.816;12.448;2023-03-08T18:27:14;8.50;;;1.98;;
69253;SDS011;56364;41.816;12.448;2023-03-08T18:29:40;8.10;;;1.73;;
69253;SDS011;56364;41.816;12.448;2023-03-08T18:34:33;11.98;;;2.00;;
69253;SDS011;56364;41.816;12.448;2023-03-08T18:37:01;10.60;;;2.15;;
69253;SDS011;56364;41.816;12.448;2023-03-08T18:39:27;4.63;;;2.22;;
69253;SDS011;56364;41.816;12.448;2023-03-08T18:41:53;12.57;;;2.75;;
69253;SDS011;56364;41.816;12.448;2023-03-08T18:44:21;10.50;;;2.38;;
69253;SDS011;56364;41.816;12.448;2023-03-08T18:46:47;7.53;;;2.15;;
69253;SDS011;56364;41.816;12.448;2023-03-08T18:49:13;7.43;;;2.50;;
69253;SDS011;56364;41.816;12.448;2023-03-08T18:51:40;14.07;;;3.20;;
69253;SDS011;56364;41.816;12.448;2023-03-08T18:54:09;8.32;;;2.22;;
69253;SDS011;56364;41.816;12.448;2023-03-08T18:56:35;6.85;;;2.85;;
69253;SDS011;56364;41.816;12.448;2023-03-08T18:59:02;10.43;;;2.92;;
69253;SDS011;56364;41.816;12.448;2023-03-08T19:01:29;8.45;;;2.95;;
69253;SDS011;56364;41.816;12.448;2023-03-08T19:03:57;12.90;;;3.92;;
69253;SDS011;56364;41.816;12.448;2023-03-08T19:06:28;7.05;;;2.92;;
69253;SDS011;56364;41.816;12.448;2023-03-08T19:08:54;13.85;;;3.03;;
69253;SDS011;56364;41.816;12.448;2023-03-08T19:11:22;7.95;;;3.20;;
69253;SDS011;56364;41.816;12.448;2023-03-08T19:14:04;7.47;;;3.45;;
69253;SDS011;56364;41.816;12.448;2023-03-08T19:16:31;8.32;;;2.80;;
69253;SDS011;56364;41.816;12.448;2023-03-08T19:18:59;11.52;;;3.83;;
69253;SDS011;56364;41.816;12.448;2023-03-08T19:21:27;9.32;;;3.55;;
69253;SDS011;56364;41.816;12.448;2023-03-08T19:23:53;12.50;;;3.47;;
69253;SDS011;56364;41.816;12.448;2023-03-08T19:26:30;12.82;;;3.70;;
69253;SDS011;56364;41.816;12.448;2023-03-08T19:31:29;8.13;;;3.67;;
69253;SDS011;56364;41.816;12.448;2023-03-08T19:33:55;8.82;;;2.80;;
69253;SDS011;56364;41.816;12.448;2023-03-08T19:36:21;8.18;;;3.30;;
69253;SDS011;56364;41.816;12.448;2023-03-08T19:41:13;5.97;;;3.10;;
69253;SDS011;56364;41.816;12.448;2023-03-08T19:43:40;11.65;;;3.03;;
69253;SDS011;56364;41.816;12.448;2023-03-08T19:46:09;8.27;;;3.30;;
69253;SDS011;56364;41.816;12.448;2023-03-08T20:22:33;11.02;;;3.42;;
69253;SDS011;56364;41.816;12.448;2023-03-08T20:25:16;7.82;;;3.83;;
69253;SDS011;56364;41.816;12.448;2023-03-08T20:30:10;8.20;;;4.05;;
69253;SDS011;56364;41.816;12.448;2023-03-08T20:32:39;11.82;;;2.97;;
69253;SDS011;56364;41.816;12.448;2023-03-08T20:37:40;9.05;;;3.30;;
69253;SDS011;56364;41.816;12.448;2023-03-08T20:50:38;9.57;;;2.60;;
69253;SDS011;56364;41.816;12.448;2023-03-08T20:53:05;9.82;;;3.30;;
69253;SDS011;56364;41.816;12.448;2023-03-08T20:55:44;11.35;;;3.17;;
69253;SDS011;56364;41.816;12.448;2023-03-08T20:58:14;11.15;;;3.08;;
69253;SDS011;56364;41.816;12.448;2023-03-08T21:00:40;12.40;;;3.30;;
69253;SDS011;56364;41.816;12.448;2023-03-08T21:03:06;11.13;;;3.33;;
69253;SDS011;56364;41.816;12.448;2023-03-08T21:05:32;12.70;;;3.40;;